createdAt,value
2018-04-26T00:00:18.611Z,886.71
2018-04-26T00:01:18.607Z,886.69
2018-04-26T00:02:18.601Z,886.68
2018-04-26T00:03:18.589Z,886.64
2018-04-26T00:04:39.578Z,886.64
2018-04-26T00:05:18.558Z,886.64
2018-04-26T00:06:18.552Z,886.68
2018-04-26T00:07:18.544Z,886.67
2018-04-26T00:08:18.536Z,886.67
2018-04-26T00:09:18.516Z,886.70
2018-04-26T00:10:39.521Z,886.67
2018-04-26T00:11:18.507Z,886.65
2018-04-26T00:12:18.494Z,886.64
2018-04-26T00:13:18.489Z,886.65
2018-04-26T00:14:18.475Z,886.63
2018-04-26T00:15:18.470Z,886.60
2018-04-26T00:16:39.460Z,886.64
2018-04-26T00:17:18.454Z,886.60
2018-04-26T00:18:18.438Z,886.60
2018-04-26T00:19:18.424Z,886.61
2018-04-26T00:20:18.416Z,886.59
2018-04-26T00:21:18.412Z,886.63
2018-04-26T00:22:39.422Z,886.62
2018-04-26T00:23:18.388Z,886.65
2018-04-26T00:24:18.389Z,886.65
2018-04-26T00:25:18.373Z,886.63
2018-04-26T00:26:18.371Z,886.62
2018-04-26T00:27:18.364Z,886.59
2018-04-26T00:28:39.347Z,886.60
2018-04-26T00:29:18.341Z,886.50
2018-04-26T00:30:18.325Z,886.51
2018-04-26T00:31:18.317Z,886.49
2018-04-26T00:32:18.300Z,886.46
2018-04-26T00:33:18.302Z,886.49
2018-04-26T00:34:39.294Z,886.44
2018-04-26T00:35:18.276Z,886.45
2018-04-26T00:36:18.273Z,886.44
2018-04-26T00:37:18.266Z,886.39
2018-04-26T00:38:18.248Z,886.37
2018-04-26T00:39:18.242Z,886.35
2018-04-26T00:40:39.237Z,886.34
2018-04-26T00:41:18.240Z,886.33
2018-04-26T00:42:18.223Z,886.34
2018-04-26T00:43:18.231Z,886.31
2018-04-26T00:44:18.191Z,886.34
2018-04-26T00:45:18.188Z,886.33
2018-04-26T00:46:39.181Z,886.34
2018-04-26T00:47:18.171Z,886.31
2018-04-26T00:48:18.156Z,886.32
2018-04-26T00:49:18.140Z,886.25
2018-04-26T00:50:18.142Z,886.18
2018-04-26T00:51:18.132Z,886.15
2018-04-26T00:52:39.133Z,886.14
2018-04-26T00:53:18.115Z,886.11
2018-04-26T00:54:18.108Z,886.17
2018-04-26T00:55:18.091Z,886.17
2018-04-26T00:56:18.081Z,886.16
2018-04-26T00:57:18.081Z,886.14
2018-04-26T00:58:39.091Z,886.16
2018-04-26T00:59:18.069Z,886.15
2018-04-26T01:00:18.045Z,886.14
2018-04-26T01:01:18.038Z,886.12
2018-04-26T01:02:18.025Z,886.13
2018-04-26T01:03:18.025Z,886.06
2018-04-26T01:04:39.021Z,886.08
2018-04-26T01:05:18.008Z,886.04
2018-04-26T01:06:19.170Z,886.00
2018-04-26T01:07:17.982Z,886.00
2018-04-26T01:08:17.969Z,886.00
2018-04-26T01:09:17.956Z,886.00
2018-04-26T01:10:38.958Z,886.03
2018-04-26T01:11:17.938Z,886.02
2018-04-26T01:12:17.925Z,886.05
2018-04-26T01:13:17.926Z,886.05
2018-04-26T01:14:17.907Z,886.07
2018-04-26T01:15:17.897Z,886.06
2018-04-26T01:16:38.904Z,886.09
2018-04-26T01:17:17.889Z,886.07
2018-04-26T01:18:17.869Z,886.12
2018-04-26T01:19:17.862Z,886.09
2018-04-26T01:20:17.843Z,886.10
2018-04-26T01:21:17.838Z,886.11
2018-04-26T01:22:38.841Z,886.08
2018-04-26T01:23:17.820Z,886.10
2018-04-26T01:24:17.810Z,886.09
2018-04-26T01:25:17.807Z,886.14
2018-04-26T01:26:17.799Z,886.18
2018-04-26T01:27:17.796Z,886.18
2018-04-26T01:28:38.780Z,886.25
2018-04-26T01:29:17.767Z,886.30
2018-04-26T01:30:17.762Z,886.29
2018-04-26T01:31:17.746Z,886.26
2018-04-26T01:32:17.731Z,886.23
2018-04-26T01:33:17.735Z,886.22
2018-04-26T01:34:38.718Z,886.20
2018-04-26T01:35:17.730Z,886.18
2018-04-26T01:36:17.702Z,886.18
2018-04-26T01:37:17.688Z,886.16
2018-04-26T01:38:17.687Z,886.14
2018-04-26T01:39:17.676Z,886.13
2018-04-26T01:40:38.667Z,886.11
2018-04-26T01:41:17.665Z,886.16
2018-04-26T01:42:17.642Z,886.19
2018-04-26T01:43:17.636Z,886.22
2018-04-26T01:44:17.623Z,886.20
2018-04-26T01:45:17.622Z,886.21
2018-04-26T01:46:38.615Z,886.23
2018-04-26T01:47:17.591Z,886.18
2018-04-26T01:48:17.585Z,886.18
2018-04-26T01:49:17.568Z,886.16
2018-04-26T01:50:17.562Z,886.16
2018-04-26T01:51:17.548Z,886.10
2018-04-26T01:52:38.559Z,886.10
2018-04-26T01:53:17.546Z,886.09
2018-04-26T01:54:17.530Z,886.09
2018-04-26T01:55:17.528Z,886.12
2018-04-26T01:56:17.504Z,886.14
2018-04-26T01:57:17.498Z,886.16
2018-04-26T01:58:38.493Z,886.19
2018-04-26T01:59:17.506Z,886.18
2018-04-26T02:00:17.466Z,886.19
2018-04-26T02:01:17.458Z,886.17
2018-04-26T02:02:17.457Z,886.21
2018-04-26T02:03:17.438Z,886.18
2018-04-26T02:04:38.438Z,886.18
2018-04-26T02:05:17.425Z,886.17
2018-04-26T02:06:17.414Z,886.21
2018-04-26T02:07:17.422Z,886.19
2018-04-26T02:08:17.389Z,886.19
2018-04-26T02:09:17.381Z,886.17
2018-04-26T02:10:38.371Z,886.13
2018-04-26T02:11:17.358Z,886.17
2018-04-26T02:12:17.352Z,886.15
2018-04-26T02:13:17.337Z,886.18
2018-04-26T02:14:17.335Z,886.20
2018-04-26T02:15:17.331Z,886.23
2018-04-26T02:16:38.324Z,886.25
2018-04-26T02:17:17.296Z,886.28
2018-04-26T02:18:17.289Z,886.29
2018-04-26T02:19:17.286Z,886.28
2018-04-26T02:20:17.275Z,886.30
2018-04-26T02:21:17.256Z,886.31
2018-04-26T02:22:38.260Z,886.32
2018-04-26T02:23:17.247Z,886.31
2018-04-26T02:24:17.229Z,886.33
2018-04-26T02:25:17.215Z,886.32
2018-04-26T02:26:17.209Z,886.34
2018-04-26T02:27:17.196Z,886.43
2018-04-26T02:28:38.195Z,886.42
2018-04-26T02:29:17.178Z,886.40
2018-04-26T02:30:17.179Z,886.42
2018-04-26T02:31:17.161Z,886.42
2018-04-26T02:32:17.152Z,886.45
2018-04-26T02:33:17.140Z,886.47
2018-04-26T02:34:38.155Z,886.47
2018-04-26T02:35:17.130Z,886.40
2018-04-26T02:36:17.111Z,886.44
2018-04-26T02:37:17.101Z,886.39
2018-04-26T02:38:17.093Z,886.44
2018-04-26T02:39:17.079Z,886.50
2018-04-26T02:40:38.075Z,886.46
2018-04-26T02:41:17.062Z,886.47
2018-04-26T02:42:17.054Z,886.47
2018-04-26T02:43:17.032Z,886.48
2018-04-26T02:44:17.028Z,886.47
2018-04-26T02:45:17.024Z,886.47
2018-04-26T02:46:38.013Z,886.51
2018-04-26T02:47:17.000Z,886.63
2018-04-26T02:48:16.992Z,886.62
2018-04-26T02:49:16.969Z,886.54
2018-04-26T02:50:16.963Z,886.61
2018-04-26T02:51:16.957Z,886.63
2018-04-26T02:52:37.950Z,886.64
2018-04-26T02:53:16.929Z,886.63
2018-04-26T02:54:16.919Z,886.67
2018-04-26T02:55:16.903Z,886.68
2018-04-26T02:56:16.891Z,886.65
2018-04-26T02:57:16.889Z,886.66
2018-04-26T02:58:37.891Z,886.60
2018-04-26T02:59:16.864Z,886.63
2018-04-26T03:00:16.857Z,886.62
2018-04-26T03:01:16.845Z,886.65
2018-04-26T03:02:16.853Z,886.66
2018-04-26T03:03:16.845Z,886.70
2018-04-26T03:04:37.831Z,886.70
2018-04-26T03:05:16.801Z,886.73
2018-04-26T03:06:16.788Z,886.71
2018-04-26T03:07:16.781Z,886.71
2018-04-26T03:08:16.817Z,886.71
2018-04-26T03:09:16.763Z,886.69
2018-04-26T03:10:37.756Z,886.65
2018-04-26T03:11:16.739Z,886.64
2018-04-26T03:12:16.721Z,886.60
2018-04-26T03:13:16.713Z,886.58
2018-04-26T03:14:16.701Z,886.59
2018-04-26T03:15:16.690Z,886.62
2018-04-26T03:16:37.690Z,886.63
2018-04-26T03:17:16.674Z,886.68
2018-04-26T03:18:16.658Z,886.70
2018-04-26T03:19:16.652Z,886.66
2018-04-26T03:20:16.641Z,886.62
2018-04-26T03:21:16.645Z,886.60
2018-04-26T03:22:37.629Z,886.65
2018-04-26T03:23:16.615Z,886.65
2018-04-26T03:24:16.592Z,886.69
2018-04-26T03:25:16.587Z,886.71
2018-04-26T03:26:16.577Z,886.67
2018-04-26T03:27:16.569Z,886.70
2018-04-26T03:28:37.574Z,886.69
2018-04-26T03:29:16.532Z,886.70
2018-04-26T03:30:16.548Z,886.72
2018-04-26T03:31:16.696Z,886.66
2018-04-26T03:32:16.526Z,886.67
2018-04-26T03:33:16.497Z,886.72
2018-04-26T03:34:37.499Z,886.72
2018-04-26T03:35:16.475Z,886.80
2018-04-26T03:36:16.465Z,886.78
2018-04-26T03:37:16.472Z,886.79
2018-04-26T03:38:16.445Z,886.80
2018-04-26T03:39:16.441Z,886.84
2018-04-26T03:40:37.427Z,886.86
2018-04-26T03:41:16.411Z,886.87
2018-04-26T03:42:16.393Z,886.85
2018-04-26T03:43:16.387Z,886.88
2018-04-26T03:44:16.389Z,886.90
2018-04-26T03:45:16.368Z,886.95
2018-04-26T03:46:37.365Z,886.92
2018-04-26T03:47:16.347Z,886.93
2018-04-26T03:48:16.352Z,886.94
2018-04-26T03:49:16.334Z,886.94
2018-04-26T03:50:16.320Z,886.96
2018-04-26T03:51:16.315Z,886.99
2018-04-26T03:52:37.298Z,887.03
2018-04-26T03:53:16.285Z,887.01
2018-04-26T03:54:16.276Z,887.05
2018-04-26T03:55:16.266Z,886.99
2018-04-26T03:56:16.264Z,886.99
2018-04-26T03:57:16.251Z,886.98
2018-04-26T03:58:37.239Z,886.98
2018-04-26T03:59:16.219Z,887.01
2018-04-26T04:00:16.219Z,887.00
2018-04-26T04:01:16.204Z,887.07
2018-04-26T04:02:16.204Z,887.12
2018-04-26T04:03:16.186Z,887.09
2018-04-26T04:04:37.179Z,887.11
2018-04-26T04:05:16.156Z,887.15
2018-04-26T04:06:16.148Z,887.16
2018-04-26T04:07:16.137Z,887.18
2018-04-26T04:08:16.123Z,887.16
2018-04-26T04:09:16.112Z,887.14
2018-04-26T04:10:37.115Z,887.16
2018-04-26T04:11:16.091Z,887.17
2018-04-26T04:12:16.084Z,887.12
2018-04-26T04:13:16.069Z,887.12
2018-04-26T04:14:16.057Z,887.10
2018-04-26T04:15:16.054Z,887.08
2018-04-26T04:16:37.038Z,887.07
2018-04-26T04:17:16.029Z,887.03
2018-04-26T04:18:16.018Z,887.08
2018-04-26T04:19:16.004Z,887.02
2018-04-26T04:20:15.993Z,887.06
2018-04-26T04:21:15.986Z,887.04
2018-04-26T04:22:36.972Z,887.01
2018-04-26T04:23:15.960Z,887.06
2018-04-26T04:24:15.947Z,887.02
2018-04-26T04:25:15.946Z,887.08
2018-04-26T04:26:15.922Z,887.02
2018-04-26T04:27:15.909Z,887.00
2018-04-26T04:28:36.907Z,887.02
2018-04-26T04:29:15.897Z,887.04
2018-04-26T04:30:15.882Z,887.00
2018-04-26T04:31:15.878Z,887.03
2018-04-26T04:32:15.868Z,887.06
2018-04-26T04:33:15.846Z,887.03
2018-04-26T04:34:36.846Z,887.03
2018-04-26T04:35:15.910Z,887.06
2018-04-26T04:36:15.814Z,887.09
2018-04-26T04:37:15.804Z,887.11
2018-04-26T04:38:15.803Z,887.11
2018-04-26T04:39:15.795Z,887.11
2018-04-26T04:40:36.775Z,887.17
2018-04-26T04:41:15.765Z,887.17
2018-04-26T04:42:15.753Z,887.18
2018-04-26T04:43:15.744Z,887.19
2018-04-26T04:44:15.742Z,887.23
2018-04-26T04:45:15.738Z,887.24
2018-04-26T04:46:36.715Z,887.22
2018-04-26T04:47:15.702Z,887.22
2018-04-26T04:48:15.685Z,887.19
2018-04-26T04:49:15.683Z,887.21
2018-04-26T04:50:15.665Z,887.20
2018-04-26T04:51:15.657Z,887.26
2018-04-26T04:52:36.649Z,887.30
2018-04-26T04:53:15.629Z,887.28
2018-04-26T04:54:15.625Z,887.30
2018-04-26T04:55:15.601Z,887.29
2018-04-26T04:56:15.614Z,887.33
2018-04-26T04:57:15.594Z,887.26
2018-04-26T04:58:36.592Z,887.29
2018-04-26T04:59:15.570Z,887.29
2018-04-26T05:00:15.556Z,887.31
2018-04-26T05:01:15.544Z,887.28
2018-04-26T05:02:15.534Z,887.34
2018-04-26T05:03:15.532Z,887.34
2018-04-26T05:04:36.518Z,887.34
2018-04-26T05:05:15.508Z,887.35
2018-04-26T05:06:15.493Z,887.36
2018-04-26T05:07:15.494Z,887.38
2018-04-26T05:08:15.477Z,887.36
2018-04-26T05:09:15.457Z,887.37
2018-04-26T05:10:36.459Z,887.40
2018-04-26T05:11:15.434Z,887.35
2018-04-26T05:12:15.432Z,887.35
2018-04-26T05:13:15.420Z,887.38
2018-04-26T05:14:15.412Z,887.34
2018-04-26T05:15:15.402Z,887.37
2018-04-26T05:16:36.385Z,887.38
2018-04-26T05:17:15.373Z,887.40
2018-04-26T05:18:15.363Z,887.43
2018-04-26T05:19:15.353Z,887.46
2018-04-26T05:20:15.340Z,887.42
2018-04-26T05:21:15.336Z,887.41
2018-04-26T05:22:36.323Z,887.37
2018-04-26T05:23:15.326Z,887.36
2018-04-26T05:24:15.304Z,887.39
2018-04-26T05:25:15.299Z,887.36
2018-04-26T05:26:15.284Z,887.40
2018-04-26T05:27:15.273Z,887.42
2018-04-26T05:28:36.264Z,887.41
2018-04-26T05:29:15.249Z,887.45
2018-04-26T05:30:15.232Z,887.47
2018-04-26T05:31:15.217Z,887.45
2018-04-26T05:32:15.213Z,887.49
2018-04-26T05:33:15.199Z,887.49
2018-04-26T05:34:36.197Z,887.49
2018-04-26T05:35:15.177Z,887.45
2018-04-26T05:36:15.170Z,887.46
2018-04-26T05:37:15.160Z,887.46
2018-04-26T05:38:15.154Z,887.44
2018-04-26T05:39:15.142Z,887.44
2018-04-26T05:40:36.195Z,887.47
2018-04-26T05:41:15.122Z,887.44
2018-04-26T05:42:15.122Z,887.45
2018-04-26T05:43:15.096Z,887.49
2018-04-26T05:44:15.083Z,887.46
2018-04-26T05:45:15.073Z,887.51
2018-04-26T05:46:36.067Z,887.51
2018-04-26T05:47:15.060Z,887.52
2018-04-26T05:48:15.046Z,887.54
2018-04-26T05:49:15.041Z,887.54
2018-04-26T05:50:15.040Z,887.52
2018-04-26T05:51:15.011Z,887.49
2018-04-26T05:52:36.002Z,887.48
2018-04-26T05:53:14.990Z,887.50
2018-04-26T05:54:14.974Z,887.52
2018-04-26T05:55:14.970Z,887.49
2018-04-26T05:56:14.960Z,887.53
2018-04-26T05:57:14.945Z,887.52
2018-04-26T05:58:35.940Z,887.51
2018-04-26T05:59:14.927Z,887.54
2018-04-26T06:00:14.911Z,887.53
2018-04-26T06:01:14.902Z,887.52
2018-04-26T06:02:14.896Z,887.57
2018-04-26T06:03:14.885Z,887.54
2018-04-26T06:04:35.903Z,887.55
2018-04-26T06:05:14.862Z,887.59
2018-04-26T06:06:14.851Z,887.60
2018-04-26T06:07:14.851Z,887.61
2018-04-26T06:08:14.835Z,887.60
2018-04-26T06:09:14.814Z,887.64
2018-04-26T06:10:35.808Z,887.60
2018-04-26T06:11:14.815Z,887.60
2018-04-26T06:12:14.784Z,887.62
2018-04-26T06:13:14.767Z,887.67
2018-04-26T06:14:14.756Z,887.69
2018-04-26T06:15:14.752Z,887.68
2018-04-26T06:16:35.749Z,887.69
2018-04-26T06:17:14.739Z,887.68
2018-04-26T06:18:14.721Z,887.74
2018-04-26T06:19:14.712Z,887.68
2018-04-26T06:20:14.698Z,887.67
2018-04-26T06:21:14.685Z,887.65
2018-04-26T06:22:35.692Z,887.64
2018-04-26T06:23:14.673Z,887.66
2018-04-26T06:24:14.657Z,887.68
2018-04-26T06:25:14.650Z,887.68
2018-04-26T06:26:14.633Z,887.70
2018-04-26T06:27:14.636Z,887.70
2018-04-26T06:28:35.614Z,887.72
2018-04-26T06:29:14.603Z,887.70
2018-04-26T06:30:14.604Z,887.70
2018-04-26T06:31:14.575Z,887.70
2018-04-26T06:32:14.562Z,887.69
2018-04-26T06:33:14.551Z,887.68
2018-04-26T06:34:35.547Z,887.70
2018-04-26T06:35:14.527Z,887.67
2018-04-26T06:36:14.518Z,887.69
2018-04-26T06:37:14.517Z,887.68
2018-04-26T06:38:14.493Z,887.62
2018-04-26T06:39:14.513Z,887.63
2018-04-26T06:40:35.485Z,887.63
2018-04-26T06:41:14.468Z,887.62
2018-04-26T06:42:14.543Z,887.66
2018-04-26T06:43:14.449Z,887.66
2018-04-26T06:44:14.441Z,887.69
2018-04-26T06:45:14.425Z,887.69
2018-04-26T06:46:35.420Z,887.72
2018-04-26T06:47:14.404Z,887.70
2018-04-26T06:48:14.391Z,887.73
2018-04-26T06:49:14.388Z,887.71
2018-04-26T06:50:14.370Z,887.68
2018-04-26T06:51:14.358Z,887.64
2018-04-26T06:52:35.355Z,887.68
2018-04-26T06:53:14.343Z,887.70
2018-04-26T06:54:14.328Z,887.70
2018-04-26T06:55:14.319Z,887.72
2018-04-26T06:56:14.306Z,887.75
2018-04-26T06:57:14.305Z,887.70
2018-04-26T06:58:35.289Z,887.72
2018-04-26T06:59:14.275Z,887.70
2018-04-26T07:00:14.267Z,887.68
2018-04-26T07:01:14.255Z,887.65
2018-04-26T07:02:14.242Z,887.70
2018-04-26T07:03:14.233Z,887.70
2018-04-26T07:04:35.227Z,887.71
2018-04-26T07:05:14.230Z,887.69
2018-04-26T07:06:14.202Z,887.66
2018-04-26T07:07:14.200Z,887.68
2018-04-26T07:08:14.178Z,887.71
2018-04-26T07:09:14.168Z,887.72
2018-04-26T07:10:35.166Z,887.70
2018-04-26T07:11:14.152Z,887.67
2018-04-26T07:12:14.136Z,887.71
2018-04-26T07:13:14.131Z,887.73
2018-04-26T07:14:14.120Z,887.74
2018-04-26T07:15:14.109Z,887.72
2018-04-26T07:16:35.102Z,887.66
2018-04-26T07:17:14.089Z,887.68
2018-04-26T07:18:14.086Z,887.70
2018-04-26T07:19:14.062Z,887.70
2018-04-26T07:20:14.055Z,887.69
2018-04-26T07:21:14.049Z,887.66
2018-04-26T07:22:35.039Z,887.65
2018-04-26T07:23:14.029Z,887.61
2018-04-26T07:24:14.017Z,887.61
2018-04-26T07:25:13.999Z,887.55
2018-04-26T07:26:13.987Z,887.60
2018-04-26T07:27:13.988Z,887.59
2018-04-26T07:28:34.972Z,887.59
2018-04-26T07:29:13.956Z,887.59
2018-04-26T07:30:13.952Z,887.60
2018-04-26T07:31:13.936Z,887.62
2018-04-26T07:32:13.928Z,887.61
2018-04-26T07:33:13.914Z,887.63
2018-04-26T07:34:34.908Z,887.65
2018-04-26T07:35:13.900Z,887.70
2018-04-26T07:36:13.885Z,887.69
2018-04-26T07:37:13.876Z,887.66
2018-04-26T07:38:13.867Z,887.69
2018-04-26T07:39:13.870Z,887.72
2018-04-26T07:40:34.843Z,887.72
2018-04-26T07:41:13.841Z,887.75
2018-04-26T07:42:13.825Z,887.73
2018-04-26T07:43:13.809Z,887.74
2018-04-26T07:44:13.793Z,887.74
2018-04-26T07:45:13.789Z,887.76
2018-04-26T07:46:34.786Z,887.77
2018-04-26T07:47:13.768Z,887.77
2018-04-26T07:48:13.746Z,887.76
2018-04-26T07:49:13.748Z,887.78
2018-04-26T07:50:13.733Z,887.75
2018-04-26T07:51:13.719Z,887.77
2018-04-26T07:52:34.723Z,887.80
2018-04-26T07:53:13.772Z,887.79
2018-04-26T07:54:13.688Z,887.80
2018-04-26T07:55:13.675Z,887.79
2018-04-26T07:56:13.659Z,887.80
2018-04-26T07:57:13.655Z,887.79
2018-04-26T07:58:34.651Z,887.82
2018-04-26T07:59:13.635Z,887.83
2018-04-26T08:00:13.650Z,887.82
2018-04-26T08:01:13.606Z,887.83
2018-04-26T08:02:13.601Z,887.81
2018-04-26T08:03:13.583Z,887.86
2018-04-26T08:04:34.593Z,887.80
2018-04-26T08:05:13.566Z,887.83
2018-04-26T08:06:13.555Z,887.83
2018-04-26T08:07:13.532Z,887.84
2018-04-26T08:08:13.533Z,887.81
2018-04-26T08:09:13.527Z,887.79
2018-04-26T08:10:34.517Z,887.84
2018-04-26T08:11:13.493Z,887.85
2018-04-26T08:12:13.483Z,887.82
2018-04-26T08:13:13.473Z,887.84
2018-04-26T08:14:13.471Z,887.82
2018-04-26T08:15:13.447Z,887.80
2018-04-26T08:16:34.443Z,887.84
2018-04-26T08:17:13.440Z,887.86
2018-04-26T08:18:13.419Z,887.91
2018-04-26T08:19:13.412Z,887.96
2018-04-26T08:20:13.401Z,887.96
2018-04-26T08:21:13.381Z,887.95
2018-04-26T08:22:34.375Z,888.00
2018-04-26T08:23:13.359Z,888.03
2018-04-26T08:24:13.351Z,888.00
2018-04-26T08:25:13.336Z,888.00
2018-04-26T08:26:13.322Z,888.00
2018-04-26T08:27:13.302Z,887.97
2018-04-26T08:28:34.299Z,887.99
2018-04-26T08:29:13.280Z,888.00
2018-04-26T08:30:13.277Z,888.02
2018-04-26T08:31:13.267Z,888.02
2018-04-26T08:32:13.252Z,888.01
2018-04-26T08:33:13.234Z,888.05
2018-04-26T08:34:34.239Z,888.05
2018-04-26T08:35:13.222Z,888.09
2018-04-26T08:36:13.200Z,888.10
2018-04-26T08:37:13.192Z,888.08
2018-04-26T08:38:13.175Z,888.13
2018-04-26T08:39:13.164Z,888.13
2018-04-26T08:40:34.169Z,888.15
2018-04-26T08:41:13.143Z,888.13
2018-04-26T08:42:13.140Z,888.16
2018-04-26T08:43:13.124Z,888.18
2018-04-26T08:44:13.107Z,888.15
2018-04-26T08:45:13.097Z,888.18
2018-04-26T08:46:34.093Z,888.17
2018-04-26T08:47:13.084Z,888.16
2018-04-26T08:48:13.060Z,888.17
2018-04-26T08:49:13.051Z,888.21
2018-04-26T08:50:13.044Z,888.17
2018-04-26T08:51:13.022Z,888.18
2018-04-26T08:52:34.019Z,888.26
2018-04-26T08:53:13.004Z,888.27
2018-04-26T08:54:12.995Z,888.25
2018-04-26T08:55:12.977Z,888.25
2018-04-26T08:56:12.966Z,888.28
2018-04-26T08:57:12.959Z,888.33
2018-04-26T08:58:33.949Z,888.27
2018-04-26T08:59:12.949Z,888.33
2018-04-26T09:00:12.926Z,888.36
2018-04-26T09:01:12.906Z,888.38
2018-04-26T09:02:12.895Z,888.38
2018-04-26T09:03:12.890Z,888.35
2018-04-26T09:04:33.888Z,888.38
2018-04-26T09:05:12.879Z,888.38
2018-04-26T09:06:12.860Z,888.38
2018-04-26T09:07:12.839Z,888.40
2018-04-26T09:08:12.833Z,888.35
2018-04-26T09:09:12.815Z,888.34
2018-04-26T09:10:33.811Z,888.30
2018-04-26T09:11:12.788Z,888.32
2018-04-26T09:12:12.781Z,888.32
2018-04-26T09:13:12.775Z,888.29
2018-04-26T09:14:12.766Z,888.26
2018-04-26T09:15:12.745Z,888.30
2018-04-26T09:16:33.734Z,888.25
2018-04-26T09:17:12.724Z,888.25
2018-04-26T09:18:12.709Z,888.26
2018-04-26T09:19:12.691Z,888.26
2018-04-26T09:20:12.687Z,888.29
2018-04-26T09:21:12.678Z,888.31
2018-04-26T09:22:33.674Z,888.31
2018-04-26T09:23:12.650Z,888.31
2018-04-26T09:24:12.648Z,888.32
2018-04-26T09:25:12.635Z,888.24
2018-04-26T09:26:12.616Z,888.25
2018-04-26T09:27:12.606Z,888.26
2018-04-26T09:28:33.594Z,888.26
2018-04-26T09:29:12.585Z,888.25
2018-04-26T09:30:12.669Z,888.30
2018-04-26T09:31:12.560Z,888.31
2018-04-26T09:32:12.573Z,888.29
2018-04-26T09:33:12.537Z,888.25
2018-04-26T09:34:33.533Z,888.26
2018-04-26T09:35:12.519Z,888.27
2018-04-26T09:36:12.504Z,888.25
2018-04-26T09:37:12.486Z,888.30
2018-04-26T09:38:12.494Z,888.30
2018-04-26T09:39:12.463Z,888.26
2018-04-26T09:40:33.459Z,888.27
2018-04-26T09:41:12.442Z,888.29
2018-04-26T09:42:12.450Z,888.34
2018-04-26T09:43:12.414Z,888.32
2018-04-26T09:44:12.405Z,888.35
2018-04-26T09:45:12.391Z,888.37
2018-04-26T09:46:33.391Z,888.39
2018-04-26T09:47:12.375Z,888.33
2018-04-26T09:48:12.361Z,888.35
2018-04-26T09:49:12.357Z,888.38
2018-04-26T09:50:12.343Z,888.37
2018-04-26T09:51:12.331Z,888.38
2018-04-26T09:52:33.322Z,888.37
2018-04-26T09:53:12.298Z,888.38
2018-04-26T09:54:12.298Z,888.36
2018-04-26T09:55:12.288Z,888.33
2018-04-26T09:56:12.274Z,888.33
2018-04-26T09:57:12.259Z,888.32
2018-04-26T09:58:33.263Z,888.36
2018-04-26T09:59:12.240Z,888.33
2018-04-26T10:00:12.227Z,888.28
2018-04-26T10:01:12.212Z,888.32
2018-04-26T10:02:12.201Z,888.30
2018-04-26T10:03:12.189Z,888.29
2018-04-26T10:04:33.180Z,888.31
2018-04-26T10:05:12.169Z,888.30
2018-04-26T10:06:12.153Z,888.27
2018-04-26T10:07:12.140Z,888.30
2018-04-26T10:08:12.129Z,888.31
2018-04-26T10:09:12.120Z,888.33
2018-04-26T10:10:33.117Z,888.31
2018-04-26T10:11:12.095Z,888.35
2018-04-26T10:12:12.088Z,888.31
2018-04-26T10:13:12.084Z,888.37
2018-04-26T10:14:12.068Z,888.38
2018-04-26T10:15:12.131Z,888.40
2018-04-26T10:16:33.039Z,888.41
2018-04-26T10:17:12.039Z,888.36
2018-04-26T10:18:12.012Z,888.40
2018-04-26T10:19:12.011Z,888.36
2018-04-26T10:20:11.999Z,888.36
2018-04-26T10:21:12.033Z,888.36
2018-04-26T10:22:32.968Z,888.40
2018-04-26T10:23:11.957Z,888.38
2018-04-26T10:24:11.952Z,888.39
2018-04-26T10:25:11.931Z,888.39
2018-04-26T10:26:11.915Z,888.39
2018-04-26T10:27:11.912Z,888.32
2018-04-26T10:28:32.909Z,888.36
2018-04-26T10:29:11.887Z,888.39
2018-04-26T10:30:11.875Z,888.41
2018-04-26T10:31:11.870Z,888.45
2018-04-26T10:32:11.844Z,888.47
2018-04-26T10:33:11.843Z,888.46
2018-04-26T10:34:32.844Z,888.46
2018-04-26T10:35:11.820Z,888.45
2018-04-26T10:36:11.801Z,888.44
2018-04-26T10:37:11.795Z,888.45
2018-04-26T10:38:11.781Z,888.45
2018-04-26T10:39:11.769Z,888.46
2018-04-26T10:40:32.765Z,888.45
2018-04-26T10:41:11.750Z,888.51
2018-04-26T10:42:11.738Z,888.50
2018-04-26T10:43:11.719Z,888.50
2018-04-26T10:44:11.767Z,888.48
2018-04-26T10:45:11.698Z,888.53
2018-04-26T10:46:32.690Z,888.49
2018-04-26T10:47:11.702Z,888.49
2018-04-26T10:48:11.663Z,888.46
2018-04-26T10:49:11.659Z,888.47
2018-04-26T10:50:11.641Z,888.49
2018-04-26T10:51:11.637Z,888.45
2018-04-26T10:52:32.623Z,888.47
2018-04-26T10:53:11.608Z,888.50
2018-04-26T10:54:11.600Z,888.48
2018-04-26T10:55:11.614Z,888.50
2018-04-26T10:56:11.565Z,888.51
2018-04-26T10:57:11.562Z,888.48
2018-04-26T10:58:32.550Z,888.48
2018-04-26T10:59:11.534Z,888.50
2018-04-26T11:00:11.569Z,888.53
2018-04-26T11:01:11.509Z,888.53
2018-04-26T11:02:11.498Z,888.52
2018-04-26T11:03:11.490Z,888.55
2018-04-26T11:04:32.484Z,888.60
2018-04-26T11:05:11.465Z,888.62
2018-04-26T11:06:11.459Z,888.58
2018-04-26T11:07:11.448Z,888.56
2018-04-26T11:08:11.425Z,888.56
2018-04-26T11:09:11.488Z,888.57
2018-04-26T11:10:32.410Z,888.53
2018-04-26T11:11:11.440Z,888.47
2018-04-26T11:12:11.392Z,888.47
2018-04-26T11:13:11.370Z,888.47
2018-04-26T11:14:11.367Z,888.43
2018-04-26T11:15:11.354Z,888.44
2018-04-26T11:16:32.345Z,888.45
2018-04-26T11:17:11.369Z,888.47
2018-04-26T11:18:11.324Z,888.45
2018-04-26T11:19:11.308Z,888.50
2018-04-26T11:20:11.363Z,888.48
2018-04-26T11:21:11.287Z,888.45
2018-04-26T11:22:32.264Z,888.47
2018-04-26T11:23:11.247Z,888.46
2018-04-26T11:24:11.243Z,888.47
2018-04-26T11:25:11.229Z,888.46
2018-04-26T11:26:11.219Z,888.49
2018-04-26T11:27:11.202Z,888.41
2018-04-26T11:28:32.205Z,888.49
2018-04-26T11:29:11.223Z,888.46
2018-04-26T11:30:11.173Z,888.49
2018-04-26T11:31:11.161Z,888.50
2018-04-26T11:32:11.160Z,888.51
2018-04-26T11:33:11.135Z,888.49
2018-04-26T11:34:32.141Z,888.51
2018-04-26T11:35:11.118Z,888.51
2018-04-26T11:36:11.116Z,888.52
2018-04-26T11:37:11.086Z,888.55
2018-04-26T11:38:11.074Z,888.55
2018-04-26T11:39:11.081Z,888.55
2018-04-26T11:40:32.051Z,888.52
2018-04-26T11:41:11.032Z,888.55
2018-04-26T11:42:11.032Z,888.50
2018-04-26T11:43:11.015Z,888.56
2018-04-26T11:44:10.998Z,888.63
2018-04-26T11:45:10.983Z,888.56
2018-04-26T11:46:31.985Z,888.59
2018-04-26T11:47:10.967Z,888.60
2018-04-26T11:48:10.951Z,888.59
2018-04-26T11:49:10.945Z,888.58
2018-04-26T11:50:10.942Z,888.58
2018-04-26T11:51:10.927Z,888.59
2018-04-26T11:52:31.920Z,888.64
2018-04-26T11:53:10.896Z,888.59
2018-04-26T11:54:10.887Z,888.61
2018-04-26T11:55:10.875Z,888.57
2018-04-26T11:56:10.852Z,888.59
2018-04-26T11:57:10.854Z,888.64
2018-04-26T11:58:31.834Z,888.62
2018-04-26T11:59:10.836Z,888.64
2018-04-26T12:00:10.805Z,888.63
2018-04-26T12:01:10.799Z,888.65
2018-04-26T12:02:10.790Z,888.62
2018-04-26T12:03:10.770Z,888.65
2018-04-26T12:04:31.767Z,888.63
2018-04-26T12:05:10.749Z,888.61
2018-04-26T12:06:10.736Z,888.66
2018-04-26T12:07:10.731Z,888.64
2018-04-26T12:08:10.713Z,888.67
2018-04-26T12:09:10.697Z,888.63
2018-04-26T12:10:31.697Z,888.61
2018-04-26T12:11:10.671Z,888.58
2018-04-26T12:12:10.662Z,888.62
2018-04-26T12:13:10.744Z,888.58
2018-04-26T12:14:10.646Z,888.59
2018-04-26T12:15:10.627Z,888.50
2018-04-26T12:16:31.617Z,888.54
2018-04-26T12:17:10.597Z,888.54
2018-04-26T12:18:10.587Z,888.59
2018-04-26T12:19:10.588Z,888.56
2018-04-26T12:20:10.569Z,888.54
2018-04-26T12:21:10.557Z,888.58
2018-04-26T12:22:31.550Z,888.58
2018-04-26T12:23:10.531Z,888.54
2018-04-26T12:24:10.519Z,888.56
2018-04-26T12:25:10.507Z,888.56
2018-04-26T12:26:10.499Z,888.59
2018-04-26T12:27:10.482Z,888.59
2018-04-26T12:28:31.478Z,888.58